Disclaimer

Please do not use the information listed here in-flight or in-navigation, as they are not provided to us by the airports but are provided by volunteers, so they might be outdated.

Search


Regions


Airport information page

Radio informations:
Tower (TWR) - 118.2 MHz

Airport informations:
Latitude: 16° 26' 19.10" S
Longitude: 039° 04' 51.30" W
Elevation: 168 feet - 51 meters
Operating hours: From sunrise to sunset (SR-SS)
Operating agency: Civil government, landing fees and diplomatic clearance may be required
Timezone: UTC-3(-2DT)
Fuel: Jet A1, without icing nhibitor.

100/130 octane gasoline, leaded, MIL-L-5572F (GREEN)

Runway information:
10/28 - 6562 x 148 feet< - >2000 x 45 meters

Recent METARs:
SBPS 202000Z 06014KT 9999 SCT020 27/23 Q1014
SBPS 202000Z 06014KT 9999 SCT020 27/23 Q1014
SBPS 202100Z 06013KT 9999 SCT020 27/23 Q1015

Airport on the map: